Time;durP1;ratioP1;P1;durP2;ratioP2;P2;SDS_P1;SDS_P2;PMS_P1;PMS_P2;Temp;Humidity;BMP_temperature;BMP_pressure;BME280_temperature;BME280_humidity;BME280_pressure;Samples;Min_cycle;Max_cycle;Signal;HPM_P1;HPM_P2
2023/06/20 00:01:56;;;;;;;16.37;14.67;;;21.10;99.90;;;;;;5041960;28;20201;-70
2023/06/20 00:04:21;;;;;;;16.60;15.00;;;21.00;99.90;;;;;;5047277;28;20195;-70
2023/06/20 00:06:47;;;;;;;16.20;14.80;;;21.00;99.90;;;;;;5045349;28;20471;-69
2023/06/20 00:09:13;;;;;;;18.23;15.40;;;20.90;99.90;;;;;;5050519;28;20245;-70
2023/06/20 00:11:38;;;;;;;16.87;15.13;;;20.90;99.90;;;;;;5044573;28;20211;-70
2023/06/20 00:14:04;;;;;;;16.33;14.80;;;20.90;99.90;;;;;;5046459;28;20266;-69
2023/06/20 00:16:30;;;;;;;16.40;14.90;;;20.90;99.90;;;;;;5051814;28;20231;-70
2023/06/20 00:18:56;;;;;;;17.53;15.83;;;20.90;99.90;;;;;;5042930;28;20426;-70
2023/06/20 00:21:26;;;;;;;14.80;13.43;;;20.80;99.90;;;;;;5053124;28;20181;-69
2023/06/20 00:23:54;;;;;;;17.73;15.93;;;20.80;99.90;;;;;;5050263;28;20437;-69
2023/06/20 00:26:21;;;;;;;17.77;15.87;;;20.70;99.90;;;;;;5046219;28;20412;-71
2023/06/20 00:28:49;;;;;;;16.47;14.90;;;20.70;99.90;;;;;;5049292;28;20570;-69
2023/06/20 00:31:14;;;;;;;17.43;15.80;;;20.70;99.90;;;;;;5051689;28;20415;-69
2023/06/20 00:33:40;;;;;;;14.40;13.10;;;20.70;99.90;;;;;;5047813;28;20443;-69
2023/06/20 00:36:06;;;;;;;16.33;14.80;;;20.70;99.90;;;;;;5050783;28;20178;-69
2023/06/20 00:38:32;;;;;;;16.17;14.50;;;20.70;99.90;;;;;;5037102;28;20220;-69
2023/06/20 00:40:57;;;;;;;17.50;15.80;;;20.70;99.90;;;;;;5044799;28;20953;-69
2023/06/20 00:43:23;;;;;;;18.00;16.30;;;20.70;99.90;;;;;;5051610;28;20273;-70
2023/06/20 00:45:49;;;;;;;17.87;16.30;;;20.70;99.90;;;;;;5047654;28;20175;-69
2023/06/20 00:48:16;;;;;;;15.93;14.47;;;20.70;99.90;;;;;;5050863;28;20187;-69
2023/06/20 00:50:43;;;;;;;16.83;15.23;;;20.70;99.90;;;;;;5044212;28;20481;-70
2023/06/20 00:53:09;;;;;;;16.13;14.50;;;20.80;99.90;;;;;;5052789;28;20797;-69
2023/06/20 00:55:35;;;;;;;16.43;14.93;;;20.80;99.90;;;;;;5043557;28;20452;-69
2023/06/20 00:58:03;;;;;;;18.00;16.20;;;20.70;99.90;;;;;;5048691;28;20178;-69
2023/06/20 01:00:32;;;;;;;17.23;15.53;;;20.70;99.90;;;;;;5042434;28;20552;-70
2023/06/20 01:03:06;;;;;;;17.80;16.00;;;20.70;99.90;;;;;;5043481;28;20794;-71
2023/06/20 01:05:32;;;;;;;18.97;17.30;;;20.70;99.90;;;;;;5050323;28;20422;-69
2023/06/20 01:08:42;;;;;;;16.40;15.00;;;20.70;99.90;;;;;;5042001;28;20428;-70
2023/06/20 01:11:24;;;;;;;17.57;15.97;;;20.60;99.90;;;;;;4973643;28;20425;-69
2023/06/20 01:14:15;;;;;;;17.03;15.27;;;20.60;99.90;;;;;;4982706;28;20470;-70
2023/06/20 01:16:51;;;;;;;16.80;15.20;;;20.60;99.90;;;;;;5021467;28;20507;-71
2023/06/20 01:19:38;;;;;;;18.93;17.17;;;20.60;99.90;;;;;;5046189;28;20465;-72
2023/06/20 01:22:10;;;;;;;17.03;15.43;;;20.60;99.90;;;;;;5045299;28;20416;-71
2023/06/20 01:24:44;;;;;;;18.03;16.30;;;20.50;99.90;;;;;;5050320;28;20448;-70
2023/06/20 01:27:17;;;;;;;16.57;14.93;;;20.50;99.90;;;;;;5042008;28;20410;-69
2023/06/20 01:29:58;;;;;;;17.07;15.57;;;20.50;99.90;;;;;;5049221;28;20789;-70
2023/06/20 01:32:25;;;;;;;17.87;16.17;;;20.40;99.90;;;;;;5039680;28;20416;-71
2023/06/20 01:34:56;;;;;;;18.73;16.80;;;20.40;99.90;;;;;;5041414;28;21012;-68
2023/06/20 01:37:23;;;;;;;19.03;16.20;;;20.40;99.90;;;;;;5043573;28;20420;-68
2023/06/20 01:39:56;;;;;;;17.43;15.63;;;20.30;99.90;;;;;;5047555;28;20797;-72
2023/06/20 01:42:24;;;;;;;16.00;14.43;;;20.30;99.90;;;;;;5051531;28;20518;-68
2023/06/20 01:44:52;;;;;;;17.13;15.57;;;20.20;99.90;;;;;;5045678;28;20519;-68
2023/06/20 01:47:19;;;;;;;17.90;16.17;;;20.20;99.90;;;;;;5044329;28;20414;-69
2023/06/20 01:49:48;;;;;;;18.67;16.87;;;20.20;99.90;;;;;;5041216;28;20503;-68
2023/06/20 01:52:15;;;;;;;18.57;16.70;;;20.20;99.90;;;;;;5044577;28;20810;-68
2023/06/20 01:54:46;;;;;;;17.40;15.77;;;20.20;99.90;;;;;;5035656;28;20441;-68
2023/06/20 01:57:13;;;;;;;18.97;17.33;;;20.10;99.90;;;;;;5050473;28;20421;-69
2023/06/20 01:59:40;;;;;;;17.17;15.57;;;20.10;99.90;;;;;;5047140;28;20494;-70
2023/06/20 02:02:06;;;;;;;17.83;16.07;;;20.10;99.90;;;;;;5046880;28;20409;-70
2023/06/20 02:04:33;;;;;;;17.10;15.50;;;20.00;99.90;;;;;;5050658;28;20433;-69
2023/06/20 02:07:02;;;;;;;18.60;17.00;;;20.00;99.90;;;;;;5044271;28;20411;-68
2023/06/20 02:09:29;;;;;;;16.80;15.30;;;20.00;99.90;;;;;;5051171;28;20923;-70
2023/06/20 02:11:56;;;;;;;16.37;14.87;;;19.90;99.90;;;;;;5047553;28;20451;-70
2023/06/20 02:14:23;;;;;;;19.07;17.07;;;19.90;99.90;;;;;;5049840;28;20964;-69
2023/06/20 02:16:49;;;;;;;17.13;15.63;;;19.90;99.90;;;;;;5046679;28;20421;-69
2023/06/20 02:19:15;;;;;;;17.80;15.97;;;19.90;99.90;;;;;;5047649;28;20462;-69
2023/06/20 02:21:43;;;;;;;17.10;15.57;;;19.90;99.90;;;;;;5050881;28;20439;-70
2023/06/20 02:24:14;;;;;;;18.37;16.53;;;19.80;99.90;;;;;;5050049;28;20193;-70
2023/06/20 02:26:43;;;;;;;17.47;15.97;;;19.80;99.90;;;;;;5046900;28;20423;-70
2023/06/20 02:29:10;;;;;;;18.47;16.70;;;19.80;99.90;;;;;;5055474;28;20568;-69
2023/06/20 02:31:40;;;;;;;17.77;16.00;;;19.80;99.90;;;;;;5047917;28;20417;-69
2023/06/20 02:34:09;;;;;;;18.03;16.43;;;19.70;99.90;;;;;;5048774;28;20933;-69
2023/06/20 02:36:36;;;;;;;18.80;17.00;;;19.70;99.90;;;;;;5049035;28;20411;-70
2023/06/20 02:39:04;;;;;;;20.53;18.60;;;19.70;99.90;;;;;;5054206;28;20416;-70
2023/06/20 02:41:30;;;;;;;18.80;17.13;;;19.60;99.90;;;;;;5056640;28;20434;-70
2023/06/20 02:43:56;;;;;;;17.80;16.20;;;19.60;99.90;;;;;;5049249;28;20439;-69
2023/06/20 02:46:36;;;;;;;20.23;18.23;;;19.60;99.90;;;;;;5055838;28;20181;-70
2023/06/20 02:49:08;;;;;;;19.23;17.23;;;19.60;99.90;;;;;;5052460;28;20417;-69
2023/06/20 02:51:45;;;;;;;20.50;18.73;;;19.60;99.90;;;;;;5046573;28;20407;-69
2023/06/20 02:54:35;;;;;;;16.80;15.20;;;19.60;99.90;;;;;;5057212;28;20509;-69
2023/06/20 02:57:06;;;;;;;18.00;16.20;;;19.70;99.90;;;;;;5050499;28;20465;-69
2023/06/20 02:59:34;;;;;;;18.80;17.00;;;19.70;99.90;;;;;;5047139;28;20456;-69
2023/06/20 03:02:03;;;;;;;17.50;15.90;;;19.70;99.90;;;;;;5052320;28;20412;-70
2023/06/20 03:04:32;;;;;;;17.53;15.97;;;19.80;99.90;;;;;;5057142;28;20438;-69
2023/06/20 03:07:01;;;;;;;18.90;17.20;;;19.80;99.90;;;;;;5044375;28;20408;-71
2023/06/20 03:09:29;;;;;;;17.33;15.87;;;19.80;99.90;;;;;;5049265;28;20413;-69
2023/06/20 03:11:55;;;;;;;19.67;17.67;;;19.80;99.90;;;;;;5048143;28;20416;-70
2023/06/20 03:14:20;;;;;;;28.40;20.50;;;19.80;99.90;;;;;;5056014;28;20487;-69
2023/06/20 03:16:46;;;;;;;20.37;18.37;;;19.90;99.90;;;;;;5054986;28;20430;-70
2023/06/20 03:19:12;;;;;;;21.70;19.60;;;19.90;99.90;;;;;;5053297;28;20200;-70
2023/06/20 03:21:39;;;;;;;20.30;18.27;;;19.80;99.90;;;;;;5056966;28;20961;-71
2023/06/20 03:24:05;;;;;;;21.80;19.60;;;19.90;99.90;;;;;;5049031;28;20192;-69
2023/06/20 03:26:38;;;;;;;20.23;18.20;;;19.90;99.90;;;;;;5052929;28;20407;-69
2023/06/20 03:29:04;;;;;;;21.77;19.57;;;19.90;99.90;;;;;;5055832;28;20447;-72
2023/06/20 03:31:30;;;;;;;22.57;20.27;;;20.00;99.90;;;;;;5048863;28;20452;-69
2023/06/20 03:33:55;;;;;;;19.30;17.50;;;20.00;99.90;;;;;;5055153;28;20194;-68
2023/06/20 03:36:21;;;;;;;20.20;18.20;;;20.10;99.90;;;;;;5051177;28;20206;-69
2023/06/20 03:38:46;;;;;;;22.23;18.17;;;20.20;99.90;;;;;;5053106;28;20228;-71
2023/06/20 03:41:12;;;;;;;24.60;20.93;;;20.20;99.90;;;;;;5052042;28;20799;-70
2023/06/20 03:43:37;;;;;;;21.57;19.33;;;20.20;99.90;;;;;;5049695;28;20199;-69
2023/06/20 03:46:03;;;;;;;21.47;19.10;;;20.30;99.90;;;;;;5052128;28;20195;-69
2023/06/20 03:48:29;;;;;;;20.20;18.30;;;20.40;99.90;;;;;;5045321;28;20166;-70
2023/06/20 03:50:54;;;;;;;20.23;18.30;;;20.40;99.90;;;;;;5047782;28;20260;-71
2023/06/20 03:53:20;;;;;;;21.53;19.57;;;20.40;99.90;;;;;;5040691;28;20197;-70
2023/06/20 03:55:45;;;;;;;21.13;19.23;;;20.40;99.90;;;;;;5046851;28;20188;-68
2023/06/20 03:58:11;;;;;;;20.47;18.30;;;20.50;99.90;;;;;;5047506;28;20174;-70
2023/06/20 04:00:38;;;;;;;21.07;18.97;;;20.60;99.90;;;;;;5049153;28;20202;-70
2023/06/20 04:03:04;;;;;;;20.57;18.50;;;20.60;99.90;;;;;;5051837;28;20650;-69
2023/06/20 04:05:29;;;;;;;21.23;19.33;;;20.60;99.90;;;;;;5038456;28;20418;-69
2023/06/20 04:07:55;;;;;;;20.90;18.90;;;20.70;99.90;;;;;;5045148;28;20534;-69
2023/06/20 04:10:21;;;;;;;21.60;19.30;;;20.70;99.90;;;;;;5044936;28;20226;-68
2023/06/20 04:12:46;;;;;;;21.80;19.70;;;20.60;99.90;;;;;;5049939;28;20259;-68
2023/06/20 04:15:12;;;;;;;21.43;19.43;;;20.50;99.90;;;;;;5046435;28;20308;-69
2023/06/20 04:20:10;;;;;;;20.07;18.27;;;20.50;99.90;;;;;;5054485;22;20227;-68
2023/06/20 04:22:36;;;;;;;19.00;17.20;;;20.50;99.90;;;;;;5029429;28;20667;-69
2023/06/20 04:25:02;;;;;;;19.83;18.03;;;20.50;99.90;;;;;;5033062;28;20394;-68
2023/06/20 04:27:27;;;;;;;20.50;18.50;;;20.60;99.90;;;;;;5033069;28;20165;-69
2023/06/20 04:29:53;;;;;;;21.17;19.20;;;20.70;99.90;;;;;;5032932;28;20195;-68
2023/06/20 04:32:18;;;;;;;19.33;17.50;;;20.80;99.90;;;;;;5032886;28;20209;-68
2023/06/20 04:34:44;;;;;;;21.00;18.90;;;21.00;99.90;;;;;;5032871;28;20696;-68
2023/06/20 04:37:09;;;;;;;19.47;17.57;;;21.40;99.90;;;;;;5033059;28;20642;-68
2023/06/20 04:39:35;;;;;;;18.90;17.10;;;21.80;99.90;;;;;;5032910;28;20217;-69
2023/06/20 04:42:01;;;;;;;18.97;17.17;;;22.00;99.90;;;;;;5032840;28;20640;-68
2023/06/20 04:44:27;;;;;;;20.07;18.17;;;22.70;99.90;;;;;;5032974;28;20421;-68
2023/06/20 04:46:55;;;;;;;16.83;15.10;;;23.00;99.90;;;;;;5032616;28;20159;-68
2023/06/20 04:49:21;;;;;;;19.50;17.80;;;23.10;99.90;;;;;;5032645;28;20509;-68
2023/06/20 04:51:47;;;;;;;20.27;18.43;;;23.00;99.90;;;;;;5032042;28;20419;-70
2023/06/20 04:54:12;;;;;;;19.43;17.63;;;22.90;99.90;;;;;;5028899;28;20561;-69
2023/06/20 04:56:40;;;;;;;19.47;17.63;;;22.90;99.90;;;;;;5030672;28;20416;-69
2023/06/20 04:59:09;;;;;;;20.13;18.27;;;22.90;99.90;;;;;;5032787;28;20219;-69
2023/06/20 05:01:35;;;;;;;22.77;20.63;;;22.60;99.90;;;;;;5032919;28;20415;-69
2023/06/20 05:04:03;;;;;;;18.20;16.70;;;22.60;99.90;;;;;;5032208;28;20912;-69
2023/06/20 05:06:29;;;;;;;18.87;17.00;;;22.60;99.90;;;;;;5029416;28;20668;-68
2023/06/20 05:08:54;;;;;;;19.57;17.73;;;22.60;99.90;;;;;;5024597;28;20612;-69
2023/06/20 05:11:20;;;;;;;19.77;17.87;;;22.50;99.90;;;;;;5031305;28;20176;-69
2023/06/20 05:13:46;;;;;;;20.77;18.87;;;22.30;99.90;;;;;;5033722;28;20597;-69
2023/06/20 05:16:11;;;;;;;21.77;19.77;;;22.20;99.90;;;;;;5030839;28;20261;-69
2023/06/20 05:18:37;;;;;;;20.90;19.00;;;22.20;99.90;;;;;;5029525;28;20210;-69
2023/06/20 05:21:02;;;;;;;21.53;19.63;;;22.20;99.90;;;;;;5031813;28;20199;-68
2023/06/20 05:23:28;;;;;;;21.80;19.60;;;22.10;99.90;;;;;;5032545;28;20170;-68
2023/06/20 05:25:54;;;;;;;20.00;18.20;;;21.90;99.90;;;;;;5032097;28;20178;-68
2023/06/20 05:28:20;;;;;;;21.67;19.57;;;21.90;99.90;;;;;;5031760;28;20188;-68
2023/06/20 05:30:45;;;;;;;20.30;18.37;;;21.80;99.90;;;;;;5031919;28;20418;-69
2023/06/20 05:33:11;;;;;;;22.30;20.13;;;21.80;99.90;;;;;;5031733;28;20697;-69
2023/06/20 05:35:37;;;;;;;22.77;20.47;;;21.80;99.90;;;;;;5029399;28;20177;-69
2023/06/20 05:38:03;;;;;;;21.40;19.50;;;21.90;99.90;;;;;;5032103;28;20208;-69
2023/06/20 05:40:29;;;;;;;20.17;18.10;;;21.80;99.90;;;;;;5031795;28;20289;-69
2023/06/20 05:42:55;;;;;;;22.17;20.17;;;21.80;99.90;;;;;;5025172;28;20911;-68
2023/06/20 05:45:21;;;;;;;20.70;18.63;;;21.70;99.90;;;;;;5029237;28;20631;-67
2023/06/20 05:47:46;;;;;;;19.67;17.73;;;21.80;99.90;;;;;;5030595;28;20185;-68
2023/06/20 05:50:12;;;;;;;22.40;20.03;;;21.80;99.90;;;;;;5031247;28;20415;-69
2023/06/20 05:52:38;;;;;;;20.37;18.50;;;21.70;99.90;;;;;;5024496;28;20350;-68
2023/06/20 05:55:04;;;;;;;24.97;21.07;;;21.90;99.90;;;;;;5031466;28;20570;-68
2023/06/20 05:57:30;;;;;;;21.10;19.10;;;22.10;99.90;;;;;;5031584;28;20174;-69
2023/06/20 05:59:56;;;;;;;22.33;20.23;;;22.30;99.90;;;;;;5031350;28;20455;-69
2023/06/20 06:02:21;;;;;;;21.73;19.73;;;22.60;99.90;;;;;;5029513;28;20170;-69
2023/06/20 06:04:48;;;;;;;20.83;18.80;;;22.60;99.90;;;;;;5025330;28;20185;-68
2023/06/20 06:07:14;;;;;;;20.87;18.77;;;22.60;99.90;;;;;;5031164;28;20167;-69
2023/06/20 06:09:39;;;;;;;22.50;20.40;;;23.30;99.90;;;;;;5031212;28;20460;-69
2023/06/20 06:12:05;;;;;;;22.57;20.27;;;23.70;99.90;;;;;;5030106;28;20170;-69
2023/06/20 06:14:31;;;;;;;21.13;19.10;;;23.80;99.90;;;;;;5031161;28;20191;-69
2023/06/20 06:16:56;;;;;;;23.30;21.03;;;23.80;99.90;;;;;;5024885;28;20448;-69
2023/06/20 06:19:22;;;;;;;23.47;21.27;;;24.00;99.90;;;;;;5030087;28;20672;-68
2023/06/20 06:21:48;;;;;;;21.50;19.50;;;24.60;99.90;;;;;;5031360;28;20229;-69
2023/06/20 06:24:13;;;;;;;22.73;20.53;;;25.10;99.90;;;;;;5031250;28;20254;-68
2023/06/20 06:26:39;;;;;;;23.07;21.03;;;25.40;99.90;;;;;;5030987;28;20243;-68
2023/06/20 06:29:05;;;;;;;22.17;20.27;;;25.70;99.90;;;;;;5031232;28;20241;-68
2023/06/20 06:31:33;;;;;;;20.97;19.07;;;25.70;99.90;;;;;;5031041;28;20179;-68
2023/06/20 06:34:00;;;;;;;21.20;19.47;;;25.70;99.90;;;;;;5031234;28;20171;-68
2023/06/20 06:36:26;;;;;;;21.10;19.30;;;25.80;99.90;;;;;;5026174;28;20457;-69
2023/06/20 06:38:52;;;;;;;21.00;19.30;;;26.40;99.90;;;;;;5030876;28;20430;-69
2023/06/20 06:41:18;;;;;;;21.07;19.07;;;26.60;99.90;;;;;;5031160;28;20454;-70
2023/06/20 06:43:45;;;;;;;27.80;21.33;;;26.40;99.90;;;;;;5024157;28;20449;-69
2023/06/20 06:46:10;;;;;;;20.40;18.70;;;27.10;99.90;;;;;;5031169;28;20418;-68
2023/06/20 06:48:36;;;;;;;21.37;19.47;;;26.30;99.90;;;;;;5030886;28;20437;-68
2023/06/20 06:51:03;;;;;;;22.80;20.90;;;27.40;99.90;;;;;;5031119;28;20217;-68
2023/06/20 06:53:29;;;;;;;21.70;19.80;;;27.80;99.90;;;;;;5031284;28;20432;-69
2023/06/20 06:55:54;;;;;;;21.03;19.23;;;28.40;99.90;;;;;;5030898;28;20406;-68
2023/06/20 06:58:20;;;;;;;23.83;21.63;;;27.90;99.90;;;;;;5030854;28;20206;-68
2023/06/20 07:00:45;;;;;;;22.23;20.30;;;27.70;99.90;;;;;;5030906;28;20330;-69
2023/06/20 07:03:11;;;;;;;21.13;19.33;;;27.60;99.90;;;;;;5027673;28;20172;-68
2023/06/20 07:05:37;;;;;;;22.17;20.23;;;27.80;99.90;;;;;;5025035;28;20217;-68
2023/06/20 07:08:03;;;;;;;21.57;19.83;;;27.80;99.90;;;;;;5031010;28;20199;-69
2023/06/20 07:10:29;;;;;;;21.43;19.57;;;28.10;99.90;;;;;;5031419;28;20398;-70
2023/06/20 07:12:54;;;;;;;20.80;19.00;;;28.50;99.90;;;;;;5028231;28;20174;-68
2023/06/20 07:15:20;;;;;;;22.03;20.27;;;29.20;99.90;;;;;;5034180;28;20163;-67
2023/06/20 07:17:46;;;;;;;20.87;19.27;;;28.80;99.90;;;;;;5033395;28;20180;-69
2023/06/20 07:20:11;;;;;;;20.67;19.00;;;29.00;99.90;;;;;;5031288;28;20645;-68
2023/06/20 07:22:37;;;;;;;22.57;20.47;;;29.20;99.90;;;;;;5034283;28;20180;-68
2023/06/20 07:25:04;;;;;;;20.47;18.70;;;28.70;99.90;;;;;;5032032;28;20671;-68
2023/06/20 07:27:29;;;;;;;23.13;21.00;;;28.80;99.90;;;;;;5034816;28;20526;-68
2023/06/20 07:29:55;;;;;;;21.60;19.80;;;28.80;99.90;;;;;;5026456;28;20505;-68
2023/06/20 07:32:21;;;;;;;22.50;20.50;;;28.90;99.90;;;;;;5034480;28;20202;-69
2023/06/20 07:34:48;;;;;;;21.87;20.07;;;27.40;99.90;;;;;;5031837;28;20584;-69
2023/06/20 07:37:14;;;;;;;23.37;21.30;;;27.10;99.90;;;;;;5034395;28;20429;-69
2023/06/20 07:39:42;;;;;;;21.70;19.80;;;27.40;99.90;;;;;;5034850;28;20461;-68
2023/06/20 07:42:11;;;;;;;20.80;19.07;;;27.60;99.90;;;;;;5034351;28;20437;-70
2023/06/20 07:44:37;;;;;;;21.67;19.77;;;28.00;99.90;;;;;;5035094;28;20414;-70
2023/06/20 07:47:02;;;;;;;20.47;18.77;;;27.20;99.90;;;;;;5034631;28;20402;-69
2023/06/20 07:49:28;;;;;;;21.63;18.70;;;27.20;99.90;;;;;;5034267;28;20184;-68
2023/06/20 07:51:54;;;;;;;21.33;19.70;;;27.30;99.90;;;;;;5032921;28;20266;-71
2023/06/20 07:54:20;;;;;;;22.70;20.70;;;27.20;99.90;;;;;;5034149;28;20177;-69
2023/06/20 07:56:45;;;;;;;22.13;20.13;;;26.80;99.90;;;;;;5034080;28;20912;-70
2023/06/20 07:59:11;;;;;;;23.47;21.07;;;26.60;99.90;;;;;;5034063;28;20539;-69
2023/06/20 08:01:37;;;;;;;24.80;22.60;;;26.70;99.90;;;;;;5033829;28;20175;-68
2023/06/20 08:04:02;;;;;;;22.00;19.80;;;27.10;99.90;;;;;;5033968;28;20172;-69
2023/06/20 08:06:28;;;;;;;23.57;21.40;;;27.10;99.90;;;;;;5034062;28;20167;-68
2023/06/20 08:08:53;;;;;;;22.80;20.80;;;27.30;99.90;;;;;;5031282;28;20225;-69
2023/06/20 08:11:21;;;;;;;24.13;21.93;;;27.60;99.90;;;;;;5034104;28;20282;-69
2023/06/20 08:13:46;;;;;;;23.37;21.30;;;27.40;99.90;;;;;;5032346;28;20179;-69
2023/06/20 08:16:12;;;;;;;23.20;21.00;;;27.40;99.90;;;;;;5033934;28;20770;-69
2023/06/20 08:18:37;;;;;;;23.70;21.20;;;27.50;99.90;;;;;;5033592;28;20242;-69
2023/06/20 08:21:03;;;;;;;22.17;20.07;;;28.00;99.90;;;;;;5033823;28;20199;-69
2023/06/20 08:23:29;;;;;;;22.17;19.97;;;27.90;99.90;;;;;;5034009;28;20539;-69
2023/06/20 08:25:55;;;;;;;21.10;19.33;;;28.00;99.90;;;;;;5032711;28;20171;-69
2023/06/20 08:28:24;;;;;;;22.30;20.23;;;27.50;99.90;;;;;;5033610;28;20189;-69
2023/06/20 08:30:50;;;;;;;21.53;19.73;;;27.80;99.90;;;;;;5033592;28;20405;-69
2023/06/20 08:33:17;;;;;;;23.10;20.97;;;28.00;99.90;;;;;;5032695;28;20416;-70
2023/06/20 08:35:43;;;;;;;22.67;20.63;;;27.60;99.90;;;;;;5032107;28;20776;-69
2023/06/20 08:38:09;;;;;;;20.50;18.63;;;27.20;99.90;;;;;;5033380;28;20687;-69
2023/06/20 08:40:35;;;;;;;22.67;20.53;;;27.20;99.90;;;;;;5031193;28;20488;-68
2023/06/20 08:43:01;;;;;;;22.83;20.90;;;27.50;99.90;;;;;;5033393;28;20402;-68
2023/06/20 08:45:27;;;;;;;22.97;21.00;;;27.10;99.90;;;;;;5031964;28;20749;-68
2023/06/20 08:47:58;;;;;;;22.53;20.33;;;27.20;99.90;;;;;;5033462;28;20692;-67
2023/06/20 08:50:27;;;;;;;23.63;21.20;;;27.40;99.90;;;;;;5033206;28;20180;-68
2023/06/20 08:52:55;;;;;;;25.07;22.67;;;27.20;99.90;;;;;;5032975;28;20416;-70
2023/06/20 08:55:21;;;;;;;23.70;21.33;;;26.70;99.90;;;;;;5032984;28;20408;-69
2023/06/20 08:57:47;;;;;;;23.70;21.40;;;26.70;99.90;;;;;;5032649;28;20470;-69
2023/06/20 09:00:23;;;;;;;23.43;21.20;;;26.70;99.90;;;;;;5033120;28;20459;-69
2023/06/20 09:02:52;;;;;;;24.90;22.70;;;26.60;99.90;;;;;;5032239;28;20409;-70
2023/06/20 09:05:19;;;;;;;21.23;19.20;;;26.90;99.90;;;;;;5032897;28;20412;-68
2023/06/20 09:07:45;;;;;;;22.60;20.60;;;26.70;99.90;;;;;;5030102;28;20410;-68
2023/06/20 09:10:15;;;;;;;22.57;20.23;;;26.90;99.90;;;;;;5027878;28;20398;-68
2023/06/20 09:12:47;;;;;;;25.60;23.30;;;27.10;99.90;;;;;;5032736;28;20167;-69
2023/06/20 09:15:18;;;;;;;24.10;21.97;;;26.90;99.90;;;;;;5032977;28;20497;-68
2023/06/20 09:17:44;;;;;;;21.17;19.07;;;26.60;99.90;;;;;;5032449;28;20409;-68
2023/06/20 09:20:12;;;;;;;22.90;20.60;;;26.50;99.90;;;;;;5032752;28;20469;-67
2023/06/20 09:22:39;;;;;;;25.60;23.40;;;26.60;99.90;;;;;;5032544;28;20444;-68
2023/06/20 09:25:06;;;;;;;25.83;22.00;;;25.90;99.90;;;;;;5032471;28;20408;-69
2023/06/20 09:27:36;;;;;;;23.10;21.10;;;26.00;99.90;;;;;;5028663;28;20406;-68
2023/06/20 09:30:03;;;;;;;22.47;20.30;;;25.90;99.90;;;;;;5028965;28;20436;-69
2023/06/20 09:32:42;;;;;;;23.90;21.73;;;25.70;99.90;;;;;;5032432;28;21006;-69
2023/06/20 09:35:10;;;;;;;21.20;19.00;;;25.30;99.90;;;;;;5026478;28;20498;-69
2023/06/20 09:37:51;;;;;;;20.47;18.67;;;25.10;99.90;;;;;;5029562;28;20443;-68
2023/06/20 09:40:19;;;;;;;22.03;19.93;;;25.10;99.90;;;;;;5030308;28;20816;-68
2023/06/20 09:42:46;;;;;;;21.50;19.60;;;25.10;99.90;;;;;;5032167;28;20909;-68
2023/06/20 09:45:16;;;;;;;21.80;19.93;;;25.10;99.90;;;;;;5032183;28;20408;-69
2023/06/20 09:47:43;;;;;;;21.63;19.80;;;24.80;99.90;;;;;;5032411;28;20410;-69
2023/06/20 09:50:13;;;;;;;23.10;21.10;;;24.40;99.90;;;;;;5032274;28;20424;-69
2023/06/20 09:53:08;;;;;;;24.50;22.00;;;24.10;99.90;;;;;;5032122;28;20912;-69
2023/06/20 09:55:35;;;;;;;26.70;22.73;;;23.80;99.90;;;;;;5030194;28;20410;-69
2023/06/20 09:58:03;;;;;;;25.23;22.60;;;23.10;99.90;;;;;;5031979;28;20434;-71
2023/06/20 10:00:31;;;;;;;27.13;24.63;;;22.70;99.90;;;;;;5031215;28;20790;-68
2023/06/20 10:03:00;;;;;;;28.40;25.73;;;22.60;99.90;;;;;;5032278;28;20438;-68
2023/06/20 10:05:28;;;;;;;25.43;22.93;;;22.30;99.90;;;;;;5029999;28;20421;-68
2023/06/20 10:07:57;;;;;;;27.53;24.83;;;22.10;99.90;;;;;;5031733;28;21093;-68
2023/06/20 10:10:23;;;;;;;27.33;24.40;;;22.10;99.90;;;;;;5031887;28;20450;-68
2023/06/20 10:12:49;;;;;;;29.23;26.30;;;22.10;99.90;;;;;;5031858;28;20417;-68
2023/06/20 10:15:16;;;;;;;28.90;26.03;;;22.00;99.90;;;;;;5031591;28;20410;-69
2023/06/20 10:17:49;;;;;;;29.33;26.40;;;21.60;99.90;;;;;;5031514;28;20182;-68
2023/06/20 10:20:31;;;;;;;27.97;25.30;;;21.60;99.90;;;;;;5051594;23;21015;-71
2023/06/20 10:22:58;;;;;;;28.00;25.20;;;21.40;99.90;;;;;;5027891;28;20406;-71
2023/06/20 10:25:26;;;;;;;28.20;25.30;;;21.60;99.90;;;;;;5030092;28;20419;-70
2023/06/20 10:27:58;;;;;;;27.97;25.27;;;21.40;99.90;;;;;;5030026;28;20409;-71
2023/06/20 10:30:56;;;;;;;28.27;25.57;;;21.50;99.90;;;;;;5029865;28;20465;-70
2023/06/20 10:33:29;;;;;;;30.57;27.40;;;21.10;99.90;;;;;;5025656;28;20406;-70
2023/06/20 10:35:56;;;;;;;28.80;25.83;;;21.30;99.90;;;;;;5022260;28;20421;-72
2023/06/20 10:38:22;;;;;;;28.70;25.90;;;21.20;99.90;;;;;;5029662;28;20403;-71
2023/06/20 10:41:04;;;;;;;31.57;28.27;;;21.10;99.90;;;;;;5030211;28;20511;-72
2023/06/20 10:43:30;;;;;;;30.43;27.47;;;21.00;99.90;;;;;;5030236;28;20412;-71
2023/06/20 10:45:57;;;;;;;29.33;26.43;;;21.00;99.90;;;;;;5030557;28;20409;-72
2023/06/20 10:48:29;;;;;;;29.50;26.40;;;20.70;99.90;;;;;;5030477;28;20459;-71
2023/06/20 10:51:00;;;;;;;30.20;27.17;;;20.60;99.90;;;;;;5033820;28;20416;-72
2023/06/20 10:53:27;;;;;;;32.00;28.93;;;20.70;99.90;;;;;;5034110;28;20414;-71
2023/06/20 10:55:53;;;;;;;36.53;28.67;;;20.80;99.90;;;;;;5033687;28;20431;-72
2023/06/20 10:58:19;;;;;;;31.43;28.10;;;20.60;99.90;;;;;;5028565;28;20414;-70
2023/06/20 11:00:44;;;;;;;32.37;29.27;;;20.60;99.90;;;;;;5033461;28;20206;-71
2023/06/20 11:03:10;;;;;;;31.13;27.90;;;20.50;99.90;;;;;;5033995;28;20574;-71
2023/06/20 11:05:36;;;;;;;30.57;27.63;;;20.30;99.90;;;;;;5033701;28;20599;-73
2023/06/20 11:08:05;;;;;;;33.07;29.77;;;20.20;99.90;;;;;;5026800;28;20470;-70
2023/06/20 11:10:35;;;;;;;35.40;31.73;;;20.20;99.90;;;;;;5033559;28;20447;-71
2023/06/20 11:13:04;;;;;;;34.60;29.87;;;20.30;99.90;;;;;;5033769;28;20414;-71
2023/06/20 11:15:34;;;;;;;34.40;30.87;;;20.10;99.90;;;;;;5034020;28;20413;-71
2023/06/20 11:18:08;;;;;;;31.57;28.10;;;20.10;99.90;;;;;;5031688;28;20416;-71
2023/06/20 11:20:35;;;;;;;31.70;28.30;;;20.10;99.90;;;;;;5033072;28;20493;-72
2023/06/20 11:23:03;;;;;;;33.07;29.90;;;20.20;99.90;;;;;;5033947;28;20410;-71
2023/06/20 11:25:30;;;;;;;33.60;29.60;;;20.20;99.90;;;;;;5033180;28;20417;-71
2023/06/20 11:28:06;;;;;;;33.30;29.80;;;20.30;99.90;;;;;;5028796;28;20459;-72
2023/06/20 11:30:34;;;;;;;33.63;30.03;;;20.40;99.90;;;;;;5033201;28;20458;-72
2023/06/20 11:33:09;;;;;;;33.43;30.03;;;20.50;99.90;;;;;;5033360;28;20408;-72
2023/06/20 11:35:54;;;;;;;33.57;30.10;;;20.50;99.90;;;;;;5033462;28;20857;-71
2023/06/20 11:38:21;;;;;;;33.37;29.97;;;20.50;99.90;;;;;;5033378;28;20414;-71
2023/06/20 11:40:59;;;;;;;34.10;30.60;;;20.70;99.90;;;;;;5033177;28;20527;-71
2023/06/20 11:43:28;;;;;;;43.53;34.23;;;20.70;99.90;;;;;;5033478;28;20434;-72
2023/06/20 11:46:01;;;;;;;32.80;29.57;;;20.80;99.90;;;;;;5033208;28;20432;-72
2023/06/20 11:48:28;;;;;;;34.67;31.17;;;20.90;99.90;;;;;;5034031;28;20469;-71
2023/06/20 11:50:59;;;;;;;32.80;29.63;;;20.90;99.90;;;;;;5032886;28;20437;-72
2023/06/20 11:53:35;;;;;;;34.83;31.40;;;21.00;99.90;;;;;;5032892;28;20420;-71
2023/06/20 11:56:04;;;;;;;33.63;30.00;;;21.10;99.90;;;;;;5025225;28;20427;-71
2023/06/20 11:58:38;;;;;;;34.13;30.73;;;21.20;99.90;;;;;;5032691;28;20424;-70
2023/06/20 12:01:09;;;;;;;32.57;29.47;;;21.20;99.90;;;;;;5031276;28;20470;-71
2023/06/20 12:03:40;;;;;;;30.97;28.00;;;21.50;99.90;;;;;;5032794;28;20411;-71
2023/06/20 12:06:28;;;;;;;31.50;28.60;;;21.70;99.90;;;;;;5033037;28;20756;-72
2023/06/20 12:08:58;;;;;;;30.27;27.47;;;22.00;99.90;;;;;;5032456;28;20724;-71
2023/06/20 12:11:28;;;;;;;28.30;25.50;;;21.80;99.90;;;;;;5032514;28;20432;-71
2023/06/20 12:13:53;;;;;;;31.53;28.27;;;21.80;99.90;;;;;;5032508;28;20422;-71
2023/06/20 12:16:20;;;;;;;32.23;29.10;;;22.00;99.90;;;;;;5032363;28;20924;-70
2023/06/20 12:18:51;;;;;;;30.67;27.70;;;22.10;99.90;;;;;;5032619;28;20906;-71
2023/06/20 12:21:17;;;;;;;29.40;26.30;;;22.10;99.90;;;;;;5032099;28;20462;-72
2023/06/20 12:23:43;;;;;;;28.20;25.47;;;22.60;99.90;;;;;;5032242;28;20417;-72
2023/06/20 12:26:09;;;;;;;29.40;26.67;;;22.80;99.90;;;;;;5031792;28;20409;-71
2023/06/20 12:28:38;;;;;;;26.27;23.80;;;22.90;99.90;;;;;;5031957;28;20501;-73
2023/06/20 12:31:06;;;;;;;26.90;24.27;;;23.20;99.90;;;;;;5032305;28;20278;-70
2023/06/20 12:33:32;;;;;;;25.10;22.80;;;23.40;99.90;;;;;;5031583;28;20821;-70
2023/06/20 12:35:58;;;;;;;26.03;23.33;;;23.60;99.90;;;;;;5031890;28;20464;-73